sensor_id;sensor_type;location;lat;lon;timestamp;temperature;humidity
23116;DHT22;11727;52.134;5.052;2023-05-07T00:01:16;14.50;99.90
23116;DHT22;11727;52.134;5.052;2023-05-07T00:03:42;14.50;99.90
23116;DHT22;11727;52.134;5.052;2023-05-07T00:06:07;14.50;99.90
23116;DHT22;11727;52.134;5.052;2023-05-07T00:08:33;14.50;99.90
23116;DHT22;11727;52.134;5.052;2023-05-07T00:10:59;14.60;99.90
23116;DHT22;11727;52.134;5.052;2023-05-07T00:13:24;14.50;99.90
23116;DHT22;11727;52.134;5.052;2023-05-07T00:15:50;14.50;99.90
23116;DHT22;11727;52.134;5.052;2023-05-07T00:18:15;14.50;99.90
23116;DHT22;11727;52.134;5.052;2023-05-07T00:20:41;14.50;99.90
23116;DHT22;11727;52.134;5.052;2023-05-07T00:23:07;14.50;99.90
23116;DHT22;11727;52.134;5.052;2023-05-07T00:25:32;14.60;99.90
23116;DHT22;11727;52.134;5.052;2023-05-07T00:27:58;14.50;99.90
23116;DHT22;11727;52.134;5.052;2023-05-07T00:30:28;14.50;99.90
23116;DHT22;11727;52.134;5.052;2023-05-07T00:32:54;14.50;99.90
23116;DHT22;11727;52.134;5.052;2023-05-07T00:35:20;14.50;99.90
23116;DHT22;11727;52.134;5.052;2023-05-07T00:37:46;14.60;99.90
23116;DHT22;11727;52.134;5.052;2023-05-07T00:40:11;14.60;99.90
23116;DHT22;11727;52.134;5.052;2023-05-07T00:42:37;14.60;99.90
23116;DHT22;11727;52.134;5.052;2023-05-07T00:45:03;14.60;99.90
23116;DHT22;11727;52.134;5.052;2023-05-07T00:47:28;14.60;99.90
23116;DHT22;11727;52.134;5.052;2023-05-07T00:49:54;14.60;99.90
23116;DHT22;11727;52.134;5.052;2023-05-07T00:52:21;14.60;99.90
23116;DHT22;11727;52.134;5.052;2023-05-07T00:54:50;14.60;99.90
23116;DHT22;11727;52.134;5.052;2023-05-07T00:57:16;14.50;99.90
23116;DHT22;11727;52.134;5.052;2023-05-07T00:59:42;14.60;99.90
23116;DHT22;11727;52.134;5.052;2023-05-07T01:02:07;14.60;99.90
23116;DHT22;11727;52.134;5.052;2023-05-07T01:04:33;14.60;99.90
23116;DHT22;11727;52.134;5.052;2023-05-07T01:06:59;14.60;99.90
23116;DHT22;11727;52.134;5.052;2023-05-07T01:09:26;14.60;99.90
23116;DHT22;11727;52.134;5.052;2023-05-07T01:11:53;14.60;99.90
23116;DHT22;11727;52.134;5.052;2023-05-07T01:14:20;14.50;99.90
23116;DHT22;11727;52.134;5.052;2023-05-07T01:16:47;14.60;99.90
23116;DHT22;11727;52.134;5.052;2023-05-07T01:25:59;14.50;99.90
23116;DHT22;11727;52.134;5.052;2023-05-07T01:28:25;14.50;99.90
23116;DHT22;11727;52.134;5.052;2023-05-07T01:30:54;14.50;99.90
23116;DHT22;11727;52.134;5.052;2023-05-07T01:33:21;14.50;99.90
23116;DHT22;11727;52.134;5.052;2023-05-07T01:35:50;14.40;99.90
23116;DHT22;11727;52.134;5.052;2023-05-07T01:38:18;14.40;99.90
23116;DHT22;11727;52.134;5.052;2023-05-07T01:40:44;14.40;99.90
23116;DHT22;11727;52.134;5.052;2023-05-07T01:43:10;14.40;99.90
23116;DHT22;11727;52.134;5.052;2023-05-07T01:45:36;14.30;99.90
23116;DHT22;11727;52.134;5.052;2023-05-07T01:48:03;14.30;99.90
23116;DHT22;11727;52.134;5.052;2023-05-07T01:50:30;14.20;99.90
23116;DHT22;11727;52.134;5.052;2023-05-07T01:52:56;14.20;99.90
23116;DHT22;11727;52.134;5.052;2023-05-07T01:55:22;14.20;99.90
23116;DHT22;11727;52.134;5.052;2023-05-07T01:57:48;14.20;99.90
23116;DHT22;11727;52.134;5.052;2023-05-07T02:00:13;14.20;99.90
23116;DHT22;11727;52.134;5.052;2023-05-07T02:02:39;14.20;99.90
23116;DHT22;11727;52.134;5.052;2023-05-07T02:05:05;14.10;99.90
23116;DHT22;11727;52.134;5.052;2023-05-07T02:07:31;14.10;99.90
23116;DHT22;11727;52.134;5.052;2023-05-07T02:09:56;14.10;99.90
23116;DHT22;11727;52.134;5.052;2023-05-07T02:12:22;14.10;99.90
23116;DHT22;11727;52.134;5.052;2023-05-07T02:14:48;14.10;99.90
23116;DHT22;11727;52.134;5.052;2023-05-07T02:17:14;14.10;99.90
23116;DHT22;11727;52.134;5.052;2023-05-07T02:19:40;14.10;99.90
23116;DHT22;11727;52.134;5.052;2023-05-07T02:22:06;14.10;99.90
23116;DHT22;11727;52.134;5.052;2023-05-07T02:24:32;14.10;99.90
23116;DHT22;11727;52.134;5.052;2023-05-07T02:26:57;14.10;99.90
23116;DHT22;11727;52.134;5.052;2023-05-07T02:29:23;14.10;99.90
23116;DHT22;11727;52.134;5.052;2023-05-07T02:31:48;14.10;99.90
23116;DHT22;11727;52.134;5.052;2023-05-07T02:34:18;14.10;99.90
23116;DHT22;11727;52.134;5.052;2023-05-07T02:36:44;14.10;99.90
23116;DHT22;11727;52.134;5.052;2023-05-07T02:39:09;14.10;99.90
23116;DHT22;11727;52.134;5.052;2023-05-07T02:41:35;14.10;99.90
23116;DHT22;11727;52.134;5.052;2023-05-07T02:44:01;14.10;99.90
23116;DHT22;11727;52.134;5.052;2023-05-07T02:46:26;14.10;99.90
23116;DHT22;11727;52.134;5.052;2023-05-07T02:48:55;14.20;99.90
23116;DHT22;11727;52.134;5.052;2023-05-07T02:51:22;14.10;99.90
23116;DHT22;11727;52.134;5.052;2023-05-07T02:53:54;14.10;99.90
23116;DHT22;11727;52.134;5.052;2023-05-07T02:56:38;14.10;99.90
23116;DHT22;11727;52.134;5.052;2023-05-07T02:59:36;14.10;99.90
23116;DHT22;11727;52.134;5.052;2023-05-07T03:02:44;14.10;99.90
23116;DHT22;11727;52.134;5.052;2023-05-07T03:08:25;14.10;99.90
23116;DHT22;11727;52.134;5.052;2023-05-07T03:10:51;14.10;99.90
23116;DHT22;11727;52.134;5.052;2023-05-07T03:13:16;14.10;99.90
23116;DHT22;11727;52.134;5.052;2023-05-07T03:15:42;14.10;99.90
23116;DHT22;11727;52.134;5.052;2023-05-07T03:18:08;14.10;99.90
23116;DHT22;11727;52.134;5.052;2023-05-07T03:20:34;14.10;99.90
23116;DHT22;11727;52.134;5.052;2023-05-07T03:46:18;14.00;99.90
23116;DHT22;11727;52.134;5.052;2023-05-07T03:48:43;14.00;99.90
23116;DHT22;11727;52.134;5.052;2023-05-07T03:51:09;14.10;99.90
23116;DHT22;11727;52.134;5.052;2023-05-07T03:53:35;14.10;99.90
23116;DHT22;11727;52.134;5.052;2023-05-07T03:56:42;14.10;99.90
23116;DHT22;11727;52.134;5.052;2023-05-07T04:00:06;14.10;99.90
23116;DHT22;11727;52.134;5.052;2023-05-07T04:03:47;14.10;99.90
23116;DHT22;11727;52.134;5.052;2023-05-07T04:07:19;14.00;99.90
23116;DHT22;11727;52.134;5.052;2023-05-07T04:10:57;14.00;99.90
23116;DHT22;11727;52.134;5.052;2023-05-07T04:20:01;14.00;99.90
23116;DHT22;11727;52.134;5.052;2023-05-07T04:22:27;14.00;99.90
23116;DHT22;11727;52.134;5.052;2023-05-07T04:24:53;14.00;99.90
23116;DHT22;11727;52.134;5.052;2023-05-07T04:42:42;14.20;99.90
23116;DHT22;11727;52.134;5.052;2023-05-07T04:45:08;14.20;99.90
23116;DHT22;11727;52.134;5.052;2023-05-07T04:47:34;14.20;99.90
23116;DHT22;11727;52.134;5.052;2023-05-07T04:50:00;14.20;99.90
23116;DHT22;11727;52.134;5.052;2023-05-07T04:52:52;14.20;99.90
23116;DHT22;11727;52.134;5.052;2023-05-07T04:55:36;14.30;99.90
23116;DHT22;11727;52.134;5.052;2023-05-07T04:58:02;14.30;99.90
23116;DHT22;11727;52.134;5.052;2023-05-07T05:00:28;14.30;99.90
23116;DHT22;11727;52.134;5.052;2023-05-07T05:02:54;14.30;99.90
23116;DHT22;11727;52.134;5.052;2023-05-07T05:05:20;14.40;99.90
23116;DHT22;11727;52.134;5.052;2023-05-07T05:07:45;14.30;99.90
23116;DHT22;11727;52.134;5.052;2023-05-07T05:10:11;14.40;99.90
23116;DHT22;11727;52.134;5.052;2023-05-07T05:12:37;14.40;99.90
23116;DHT22;11727;52.134;5.052;2023-05-07T05:15:29;14.50;99.90
23116;DHT22;11727;52.134;5.052;2023-05-07T05:18:18;14.50;99.90
23116;DHT22;11727;52.134;5.052;2023-05-07T05:21:11;14.50;99.90
23116;DHT22;11727;52.134;5.052;2023-05-07T05:24:07;14.50;99.90
23116;DHT22;11727;52.134;5.052;2023-05-07T05:26:56;14.50;99.90
23116;DHT22;11727;52.134;5.052;2023-05-07T05:36:03;14.60;99.90
23116;DHT22;11727;52.134;5.052;2023-05-07T05:38:29;14.70;99.90
23116;DHT22;11727;52.134;5.052;2023-05-07T05:40:55;14.70;99.90
23116;DHT22;11727;52.134;5.052;2023-05-07T05:43:21;14.70;99.90
23116;DHT22;11727;52.134;5.052;2023-05-07T06:09:48;14.60;99.90
23116;DHT22;11727;52.134;5.052;2023-05-07T06:20:26;14.60;99.90
23116;DHT22;11727;52.134;5.052;2023-05-07T06:22:58;14.60;99.90
23116;DHT22;11727;52.134;5.052;2023-05-07T06:25:27;14.70;99.90
23116;DHT22;11727;52.134;5.052;2023-05-07T06:27:55;14.60;99.90
23116;DHT22;11727;52.134;5.052;2023-05-07T06:30:20;14.70;99.90
23116;DHT22;11727;52.134;5.052;2023-05-07T06:32:46;14.70;99.90
23116;DHT22;11727;52.134;5.052;2023-05-07T06:35:11;14.70;99.90
23116;DHT22;11727;52.134;5.052;2023-05-07T06:37:37;14.80;99.90
23116;DHT22;11727;52.134;5.052;2023-05-07T06:40:08;14.80;99.90
23116;DHT22;11727;52.134;5.052;2023-05-07T06:42:35;14.80;99.90
23116;DHT22;11727;52.134;5.052;2023-05-07T06:45:01;14.80;99.90
23116;DHT22;11727;52.134;5.052;2023-05-07T06:47:28;14.90;99.90
23116;DHT22;11727;52.134;5.052;2023-05-07T06:49:54;14.90;99.90
23116;DHT22;11727;52.134;5.052;2023-05-07T06:52:20;14.90;99.90
23116;DHT22;11727;52.134;5.052;2023-05-07T06:54:46;14.90;99.90
23116;DHT22;11727;52.134;5.052;2023-05-07T06:57:11;14.90;99.90
23116;DHT22;11727;52.134;5.052;2023-05-07T06:59:37;14.90;99.90
23116;DHT22;11727;52.134;5.052;2023-05-07T07:02:02;14.90;99.90
23116;DHT22;11727;52.134;5.052;2023-05-07T07:04:28;15.00;99.90
23116;DHT22;11727;52.134;5.052;2023-05-07T07:06:54;15.00;99.90
23116;DHT22;11727;52.134;5.052;2023-05-07T07:09:19;15.00;99.90
23116;DHT22;11727;52.134;5.052;2023-05-07T07:11:45;15.00;99.90
23116;DHT22;11727;52.134;5.052;2023-05-07T07:14:10;15.10;99.90
23116;DHT22;11727;52.134;5.052;2023-05-07T07:16:36;15.10;99.90
23116;DHT22;11727;52.134;5.052;2023-05-07T07:19:02;15.20;99.90
23116;DHT22;11727;52.134;5.052;2023-05-07T07:21:27;15.20;99.90
23116;DHT22;11727;52.134;5.052;2023-05-07T07:23:53;15.30;99.90
23116;DHT22;11727;52.134;5.052;2023-05-07T07:26:18;15.40;99.90
23116;DHT22;11727;52.134;5.052;2023-05-07T07:28:45;15.40;99.90
23116;DHT22;11727;52.134;5.052;2023-05-07T07:31:11;15.50;99.90
23116;DHT22;11727;52.134;5.052;2023-05-07T07:33:37;15.50;99.90
23116;DHT22;11727;52.134;5.052;2023-05-07T07:36:03;15.50;99.90
23116;DHT22;11727;52.134;5.052;2023-05-07T07:38:29;15.50;99.90
23116;DHT22;11727;52.134;5.052;2023-05-07T07:40:54;15.60;99.90
23116;DHT22;11727;52.134;5.052;2023-05-07T07:43:20;15.60;99.90
23116;DHT22;11727;52.134;5.052;2023-05-07T07:45:45;15.60;99.90
23116;DHT22;11727;52.134;5.052;2023-05-07T07:48:11;15.70;99.90
23116;DHT22;11727;52.134;5.052;2023-05-07T07:50:37;15.70;99.90
23116;DHT22;11727;52.134;5.052;2023-05-07T07:53:03;15.80;99.90
23116;DHT22;11727;52.134;5.052;2023-05-07T07:55:28;15.80;99.90
23116;DHT22;11727;52.134;5.052;2023-05-07T07:57:54;15.90;99.90
23116;DHT22;11727;52.134;5.052;2023-05-07T08:00:20;15.90;99.90
23116;DHT22;11727;52.134;5.052;2023-05-07T08:02:46;16.00;99.90
23116;DHT22;11727;52.134;5.052;2023-05-07T08:05:11;16.00;99.90
23116;DHT22;11727;52.134;5.052;2023-05-07T08:07:37;16.20;99.90
23116;DHT22;11727;52.134;5.052;2023-05-07T08:10:03;16.20;99.90
23116;DHT22;11727;52.134;5.052;2023-05-07T08:12:29;16.30;99.90
23116;DHT22;11727;52.134;5.052;2023-05-07T08:14:55;16.30;99.90
23116;DHT22;11727;52.134;5.052;2023-05-07T08:17:20;16.40;99.90
23116;DHT22;11727;52.134;5.052;2023-05-07T08:19:48;16.40;99.90
23116;DHT22;11727;52.134;5.052;2023-05-07T08:22:13;16.40;99.90
23116;DHT22;11727;52.134;5.052;2023-05-07T08:24:39;16.50;99.90
23116;DHT22;11727;52.134;5.052;2023-05-07T08:27:05;16.50;99.90
23116;DHT22;11727;52.134;5.052;2023-05-07T08:29:31;16.70;99.90
23116;DHT22;11727;52.134;5.052;2023-05-07T08:31:56;16.90;99.90
23116;DHT22;11727;52.134;5.052;2023-05-07T08:34:22;17.20;99.90
23116;DHT22;11727;52.134;5.052;2023-05-07T08:36:48;17.50;99.90
23116;DHT22;11727;52.134;5.052;2023-05-07T08:39:16;17.70;99.90
23116;DHT22;11727;52.134;5.052;2023-05-07T08:41:45;17.80;99.90
23116;DHT22;11727;52.134;5.052;2023-05-07T08:44:14;17.90;99.90
23116;DHT22;11727;52.134;5.052;2023-05-07T08:46:41;18.10;99.90
23116;DHT22;11727;52.134;5.052;2023-05-07T08:49:07;18.40;99.90
23116;DHT22;11727;52.134;5.052;2023-05-07T08:51:33;18.60;99.90
23116;DHT22;11727;52.134;5.052;2023-05-07T08:53:59;18.80;99.90
23116;DHT22;11727;52.134;5.052;2023-05-07T08:56:26;18.90;99.90
23116;DHT22;11727;52.134;5.052;2023-05-07T08:58:52;19.10;99.90
23116;DHT22;11727;52.134;5.052;2023-05-07T09:01:22;19.20;99.90
23116;DHT22;11727;52.134;5.052;2023-05-07T09:03:47;19.30;99.90
23116;DHT22;11727;52.134;5.052;2023-05-07T09:06:14;19.50;99.90
23116;DHT22;11727;52.134;5.052;2023-05-07T09:08:40;19.70;99.90
23116;DHT22;11727;52.134;5.052;2023-05-07T09:11:06;19.80;99.90
23116;DHT22;11727;52.134;5.052;2023-05-07T09:13:31;19.90;99.90
23116;DHT22;11727;52.134;5.052;2023-05-07T09:15:57;20.00;99.90
23116;DHT22;11727;52.134;5.052;2023-05-07T09:18:26;20.10;99.90
23116;DHT22;11727;52.134;5.052;2023-05-07T09:20:52;20.30;99.90
23116;DHT22;11727;52.134;5.052;2023-05-07T09:23:17;20.40;99.90
23116;DHT22;11727;52.134;5.052;2023-05-07T09:25:43;20.40;99.90
23116;DHT22;11727;52.134;5.052;2023-05-07T09:28:09;20.50;99.90
23116;DHT22;11727;52.134;5.052;2023-05-07T09:30:36;20.50;99.90
23116;DHT22;11727;52.134;5.052;2023-05-07T09:33:03;20.70;99.90
23116;DHT22;11727;52.134;5.052;2023-05-07T09:35:30;20.80;99.90
23116;DHT22;11727;52.134;5.052;2023-05-07T09:37:58;20.90;99.90
23116;DHT22;11727;52.134;5.052;2023-05-07T09:40:27;20.70;99.90
23116;DHT22;11727;52.134;5.052;2023-05-07T09:42:53;20.60;99.90
23116;DHT22;11727;52.134;5.052;2023-05-07T09:45:25;20.50;99.90
23116;DHT22;11727;52.134;5.052;2023-05-07T09:47:54;20.60;99.90
23116;DHT22;11727;52.134;5.052;2023-05-07T09:50:28;20.70;99.90
23116;DHT22;11727;52.134;5.052;2023-05-07T09:52:56;20.80;99.90
23116;DHT22;11727;52.134;5.052;2023-05-07T09:55:22;20.90;99.90
23116;DHT22;11727;52.134;5.052;2023-05-07T09:57:52;21.00;99.90
23116;DHT22;11727;52.134;5.052;2023-05-07T10:00:22;21.10;99.90
23116;DHT22;11727;52.134;5.052;2023-05-07T10:02:49;21.20;99.90
23116;DHT22;11727;52.134;5.052;2023-05-07T10:05:18;21.30;99.90
23116;DHT22;11727;52.134;5.052;2023-05-07T10:07:46;21.20;99.90
23116;DHT22;11727;52.134;5.052;2023-05-07T10:10:12;21.30;99.90
23116;DHT22;11727;52.134;5.052;2023-05-07T10:12:38;21.50;99.90
23116;DHT22;11727;52.134;5.052;2023-05-07T10:15:12;21.60;99.90
23116;DHT22;11727;52.134;5.052;2023-05-07T10:17:39;21.60;99.90
23116;DHT22;11727;52.134;5.052;2023-05-07T10:20:06;21.60;99.90
23116;DHT22;11727;52.134;5.052;2023-05-07T10:22:38;21.40;99.90
23116;DHT22;11727;52.134;5.052;2023-05-07T10:25:18;21.30;99.90
23116;DHT22;11727;52.134;5.052;2023-05-07T10:27:47;21.20;99.90
23116;DHT22;11727;52.134;5.052;2023-05-07T10:33:05;21.40;99.90
23116;DHT22;11727;52.134;5.052;2023-05-07T10:35:38;21.60;99.90
23116;DHT22;11727;52.134;5.052;2023-05-07T10:38:06;21.90;99.90
23116;DHT22;11727;52.134;5.052;2023-05-07T10:40:32;22.20;99.90
23116;DHT22;11727;52.134;5.052;2023-05-07T10:43:03;22.30;99.90
23116;DHT22;11727;52.134;5.052;2023-05-07T10:45:30;22.40;99.90
23116;DHT22;11727;52.134;5.052;2023-05-07T10:48:17;22.30;99.90
23116;DHT22;11727;52.134;5.052;2023-05-07T10:50:44;22.30;99.90
23116;DHT22;11727;52.134;5.052;2023-05-07T10:55:47;22.40;99.90
23116;DHT22;11727;52.134;5.052;2023-05-07T11:00:48;22.80;99.90
23116;DHT22;11727;52.134;5.052;2023-05-07T11:03:14;22.90;99.90
23116;DHT22;11727;52.134;5.052;2023-05-07T11:05:41;22.90;99.90
23116;DHT22;11727;52.134;5.052;2023-05-07T11:08:07;23.10;99.90
23116;DHT22;11727;52.134;5.052;2023-05-07T11:10:55;23.00;99.90
23116;DHT22;11727;52.134;5.052;2023-05-07T11:13:41;22.90;99.90
23116;DHT22;11727;52.134;5.052;2023-05-07T11:16:23;22.90;99.90
23116;DHT22;11727;52.134;5.052;2023-05-07T11:18:56;22.80;99.90
23116;DHT22;11727;52.134;5.052;2023-05-07T11:21:38;22.70;99.90
23116;DHT22;11727;52.134;5.052;2023-05-07T11:24:09;22.80;99.90
23116;DHT22;11727;52.134;5.052;2023-05-07T11:26:48;22.80;99.90
23116;DHT22;11727;52.134;5.052;2023-05-07T11:29:21;22.80;99.90
23116;DHT22;11727;52.134;5.052;2023-05-07T11:31:55;22.80;99.90
23116;DHT22;11727;52.134;5.052;2023-05-07T11:34:24;22.80;99.90
23116;DHT22;11727;52.134;5.052;2023-05-07T11:36:51;22.80;99.90
23116;DHT22;11727;52.134;5.052;2023-05-07T11:39:24;22.80;99.90
23116;DHT22;11727;52.134;5.052;2023-05-07T11:41:50;22.90;99.90
23116;DHT22;11727;52.134;5.052;2023-05-07T11:44:15;22.90;99.90
23116;DHT22;11727;52.134;5.052;2023-05-07T11:46:43;23.00;99.90
23116;DHT22;11727;52.134;5.052;2023-05-07T11:49:11;23.10;99.90
23116;DHT22;11727;52.134;5.052;2023-05-07T11:51:36;23.20;99.90
23116;DHT22;11727;52.134;5.052;2023-05-07T11:54:05;23.30;99.90
23116;DHT22;11727;52.134;5.052;2023-05-07T11:56:34;23.40;99.90
23116;DHT22;11727;52.134;5.052;2023-05-07T11:59:01;23.40;99.90
23116;DHT22;11727;52.134;5.052;2023-05-07T12:01:27;23.30;99.90
23116;DHT22;11727;52.134;5.052;2023-05-07T12:03:52;23.20;99.90
23116;DHT22;11727;52.134;5.052;2023-05-07T12:06:18;23.20;99.90
23116;DHT22;11727;52.134;5.052;2023-05-07T12:08:45;23.20;99.90
23116;DHT22;11727;52.134;5.052;2023-05-07T12:11:21;23.30;99.90
23116;DHT22;11727;52.134;5.052;2023-05-07T12:13:47;23.40;99.90
23116;DHT22;11727;52.134;5.052;2023-05-07T12:16:13;23.40;99.90
23116;DHT22;11727;52.134;5.052;2023-05-07T12:18:40;23.30;99.90
23116;DHT22;11727;52.134;5.052;2023-05-07T12:21:06;23.30;99.90
23116;DHT22;11727;52.134;5.052;2023-05-07T12:23:36;23.30;99.90
23116;DHT22;11727;52.134;5.052;2023-05-07T12:26:02;23.40;99.90
23116;DHT22;11727;52.134;5.052;2023-05-07T12:28:28;23.40;99.90
23116;DHT22;11727;52.134;5.052;2023-05-07T12:30:54;23.30;99.90
23116;DHT22;11727;52.134;5.052;2023-05-07T12:33:24;23.20;99.90
23116;DHT22;11727;52.134;5.052;2023-05-07T12:35:50;23.10;99.90
23116;DHT22;11727;52.134;5.052;2023-05-07T12:38:18;23.00;99.90
23116;DHT22;11727;52.134;5.052;2023-05-07T12:40:48;22.90;99.90
23116;DHT22;11727;52.134;5.052;2023-05-07T12:43:20;22.90;99.90
23116;DHT22;11727;52.134;5.052;2023-05-07T12:45:50;22.90;99.90
23116;DHT22;11727;52.134;5.052;2023-05-07T12:48:16;23.00;99.90
23116;DHT22;11727;52.134;5.052;2023-05-07T12:50:42;23.00;99.90
23116;DHT22;11727;52.134;5.052;2023-05-07T12:53:09;23.00;99.90
23116;DHT22;11727;52.134;5.052;2023-05-07T12:56:02;22.90;99.90
23116;DHT22;11727;52.134;5.052;2023-05-07T12:58:33;22.80;99.90
23116;DHT22;11727;52.134;5.052;2023-05-07T13:01:04;22.70;99.90
23116;DHT22;11727;52.134;5.052;2023-05-07T13:03:32;22.60;99.90
23116;DHT22;11727;52.134;5.052;2023-05-07T13:06:03;22.50;99.90
23116;DHT22;11727;52.134;5.052;2023-05-07T13:08:33;22.30;99.90
23116;DHT22;11727;52.134;5.052;2023-05-07T13:11:00;22.30;99.90
23116;DHT22;11727;52.134;5.052;2023-05-07T13:13:33;22.30;99.90
23116;DHT22;11727;52.134;5.052;2023-05-07T13:15:59;22.40;99.90
23116;DHT22;11727;52.134;5.052;2023-05-07T13:18:26;22.40;99.90
23116;DHT22;11727;52.134;5.052;2023-05-07T13:20:52;22.50;99.90
23116;DHT22;11727;52.134;5.052;2023-05-07T13:23:18;22.50;99.90
23116;DHT22;11727;52.134;5.052;2023-05-07T13:25:43;22.60;99.90
23116;DHT22;11727;52.134;5.052;2023-05-07T13:28:09;22.70;99.90
23116;DHT22;11727;52.134;5.052;2023-05-07T13:30:35;22.80;99.90
23116;DHT22;11727;52.134;5.052;2023-05-07T13:33:01;23.10;99.90
23116;DHT22;11727;52.134;5.052;2023-05-07T13:35:26;23.30;99.90
23116;DHT22;11727;52.134;5.052;2023-05-07T13:37:52;23.50;99.90
23116;DHT22;11727;52.134;5.052;2023-05-07T13:40:18;23.60;99.90
23116;DHT22;11727;52.134;5.052;2023-05-07T13:42:44;23.60;99.90
23116;DHT22;11727;52.134;5.052;2023-05-07T13:45:10;23.50;99.90
23116;DHT22;11727;52.134;5.052;2023-05-07T13:47:36;23.30;99.90
23116;DHT22;11727;52.134;5.052;2023-05-07T13:50:01;23.30;99.90
23116;DHT22;11727;52.134;5.052;2023-05-07T13:52:27;23.10;99.90
23116;DHT22;11727;52.134;5.052;2023-05-07T13:54:53;23.00;99.90
23116;DHT22;11727;52.134;5.052;2023-05-07T13:57:18;22.90;99.90
23116;DHT22;11727;52.134;5.052;2023-05-07T13:59:44;22.70;99.90
23116;DHT22;11727;52.134;5.052;2023-05-07T14:02:12;22.60;99.90
23116;DHT22;11727;52.134;5.052;2023-05-07T14:04:37;22.50;99.90
23116;DHT22;11727;52.134;5.052;2023-05-07T14:07:03;22.40;99.90
23116;DHT22;11727;52.134;5.052;2023-05-07T14:09:29;22.20;99.90
23116;DHT22;11727;52.134;5.052;2023-05-07T14:11:55;22.20;99.90
23116;DHT22;11727;52.134;5.052;2023-05-07T14:14:20;22.10;99.90
23116;DHT22;11727;52.134;5.052;2023-05-07T14:16:46;22.00;99.90
23116;DHT22;11727;52.134;5.052;2023-05-07T14:19:12;21.90;99.90
23116;DHT22;11727;52.134;5.052;2023-05-07T14:21:38;21.90;99.90
23116;DHT22;11727;52.134;5.052;2023-05-07T14:24:06;21.70;99.90
23116;DHT22;11727;52.134;5.052;2023-05-07T14:26:32;21.60;99.90
23116;DHT22;11727;52.134;5.052;2023-05-07T14:28:58;21.50;99.90
23116;DHT22;11727;52.134;5.052;2023-05-07T14:31:24;21.20;99.90
23116;DHT22;11727;52.134;5.052;2023-05-07T14:33:50;20.80;99.90
23116;DHT22;11727;52.134;5.052;2023-05-07T14:36:16;20.50;99.90
23116;DHT22;11727;52.134;5.052;2023-05-07T14:38:43;20.10;99.90
23116;DHT22;11727;52.134;5.052;2023-05-07T14:41:08;19.80;99.90
23116;DHT22;11727;52.134;5.052;2023-05-07T14:43:34;19.40;99.90
23116;DHT22;11727;52.134;5.052;2023-05-07T14:46:00;19.20;99.90
23116;DHT22;11727;52.134;5.052;2023-05-07T14:48:25;18.90;99.90
23116;DHT22;11727;52.134;5.052;2023-05-07T14:50:51;18.70;99.90
23116;DHT22;11727;52.134;5.052;2023-05-07T14:53:16;18.50;99.90
23116;DHT22;11727;52.134;5.052;2023-05-07T14:55:42;18.30;99.90
23116;DHT22;11727;52.134;5.052;2023-05-07T14:58:08;18.10;99.90
23116;DHT22;11727;52.134;5.052;2023-05-07T15:00:33;17.80;99.90
23116;DHT22;11727;52.134;5.052;2023-05-07T15:03:05;17.60;99.90
23116;DHT22;11727;52.134;5.052;2023-05-07T15:05:32;17.50;99.90
23116;DHT22;11727;52.134;5.052;2023-05-07T15:07:57;17.40;99.90
23116;DHT22;11727;52.134;5.052;2023-05-07T15:10:23;17.30;99.90
23116;DHT22;11727;52.134;5.052;2023-05-07T15:12:48;17.20;99.90
23116;DHT22;11727;52.134;5.052;2023-05-07T15:15:14;17.10;99.90
23116;DHT22;11727;52.134;5.052;2023-05-07T15:17:40;17.00;99.90
23116;DHT22;11727;52.134;5.052;2023-05-07T15:20:06;16.80;99.90
23116;DHT22;11727;52.134;5.052;2023-05-07T15:22:32;16.70;99.90
23116;DHT22;11727;52.134;5.052;2023-05-07T15:24:58;16.60;99.90
23116;DHT22;11727;52.134;5.052;2023-05-07T15:27:24;16.50;99.90
23116;DHT22;11727;52.134;5.052;2023-05-07T15:29:49;16.40;99.90
23116;DHT22;11727;52.134;5.052;2023-05-07T15:32:16;16.40;99.90
23116;DHT22;11727;52.134;5.052;2023-05-07T15:34:41;16.30;99.90
23116;DHT22;11727;52.134;5.052;2023-05-07T15:37:07;16.30;99.90
23116;DHT22;11727;52.134;5.052;2023-05-07T15:39:33;16.30;99.90
23116;DHT22;11727;52.134;5.052;2023-05-07T15:41:58;16.30;99.90
23116;DHT22;11727;52.134;5.052;2023-05-07T15:44:24;16.30;99.90
23116;DHT22;11727;52.134;5.052;2023-05-07T15:46:54;16.30;99.90
23116;DHT22;11727;52.134;5.052;2023-05-07T15:49:19;16.30;99.90
23116;DHT22;11727;52.134;5.052;2023-05-07T15:51:45;16.40;99.90
23116;DHT22;11727;52.134;5.052;2023-05-07T15:54:11;16.50;99.90
23116;DHT22;11727;52.134;5.052;2023-05-07T15:56:37;16.60;99.90
23116;DHT22;11727;52.134;5.052;2023-05-07T15:59:02;16.60;99.90
23116;DHT22;11727;52.134;5.052;2023-05-07T16:01:28;16.60;99.90
23116;DHT22;11727;52.134;5.052;2023-05-07T16:03:54;16.70;99.90
23116;DHT22;11727;52.134;5.052;2023-05-07T16:06:20;16.70;99.90
23116;DHT22;11727;52.134;5.052;2023-05-07T16:08:46;16.70;99.90
23116;DHT22;11727;52.134;5.052;2023-05-07T16:11:11;16.80;99.90
23116;DHT22;11727;52.134;5.052;2023-05-07T16:13:37;16.80;99.90
23116;DHT22;11727;52.134;5.052;2023-05-07T16:16:05;16.80;99.90
23116;DHT22;11727;52.134;5.052;2023-05-07T16:18:31;16.80;99.90
23116;DHT22;11727;52.134;5.052;2023-05-07T16:20:59;16.70;99.90
23116;DHT22;11727;52.134;5.052;2023-05-07T16:23:25;16.80;99.90
23116;DHT22;11727;52.134;5.052;2023-05-07T16:25:52;16.90;99.90
23116;DHT22;11727;52.134;5.052;2023-05-07T16:28:18;17.00;99.90
23116;DHT22;11727;52.134;5.052;2023-05-07T16:30:43;16.90;99.90
23116;DHT22;11727;52.134;5.052;2023-05-07T16:33:09;17.00;99.90
23116;DHT22;11727;52.134;5.052;2023-05-07T16:35:35;17.00;99.90
23116;DHT22;11727;52.134;5.052;2023-05-07T16:38:00;17.00;99.90
23116;DHT22;11727;52.134;5.052;2023-05-07T16:40:26;17.10;99.90
23116;DHT22;11727;52.134;5.052;2023-05-07T16:42:52;17.20;99.90
23116;DHT22;11727;52.134;5.052;2023-05-07T16:45:18;17.20;99.90
23116;DHT22;11727;52.134;5.052;2023-05-07T16:47:43;17.20;99.90
23116;DHT22;11727;52.134;5.052;2023-05-07T16:50:10;17.30;99.90
23116;DHT22;11727;52.134;5.052;2023-05-07T16:52:35;17.30;99.90
23116;DHT22;11727;52.134;5.052;2023-05-07T16:55:01;17.30;99.90
23116;DHT22;11727;52.134;5.052;2023-05-07T16:57:28;17.40;99.90
23116;DHT22;11727;52.134;5.052;2023-05-07T16:59:57;17.40;99.90
23116;DHT22;11727;52.134;5.052;2023-05-07T17:02:24;17.40;99.90
23116;DHT22;11727;52.134;5.052;2023-05-07T17:04:49;17.50;99.90
23116;DHT22;11727;52.134;5.052;2023-05-07T17:07:15;17.40;99.90
23116;DHT22;11727;52.134;5.052;2023-05-07T17:09:41;17.40;99.90
23116;DHT22;11727;52.134;5.052;2023-05-07T17:12:07;17.30;99.90
23116;DHT22;11727;52.134;5.052;2023-05-07T17:14:32;17.30;99.90
23116;DHT22;11727;52.134;5.052;2023-05-07T17:16:58;17.20;99.90
23116;DHT22;11727;52.134;5.052;2023-05-07T17:19:23;17.20;99.90